Time;durP1;ratioP1;P1;durP2;ratioP2;P2;SDS_P1;SDS_P2;PMS_P1;PMS_P2;Temp;Humidity;BMP_temperature;BMP_pressure;BME280_temperature;BME280_humidity;BME280_pressure;Samples;Min_cycle;Max_cycle;Signal;HPM_P1;HPM_P2
2023/01/17 00:02:09;;;;;;;19.50;10.90;;;;;;;5.32;100.00;93283.63;5051913;28;20299;-56
2023/01/17 00:10:13;;;;;;;17.13;11.13;;;;;;;5.23;100.00;93258.44;5052251;28;20321;-56
2023/01/17 00:12:38;;;;;;;18.40;11.90;;;;;;;5.24;100.00;93252.47;5052022;28;20216;-57
2023/01/17 00:15:05;;;;;;;20.13;11.00;;;;;;;5.35;100.00;93249.84;5051835;28;20580;-56
2023/01/17 00:17:31;;;;;;;18.23;11.47;;;;;;;5.51;100.00;93266.00;5051714;28;20224;-58
2023/01/17 01:35:24;;;;;;;15.53;8.63;;;;;;;5.01;100.00;93199.84;5050682;28;20196;-57
2023/01/17 01:37:50;;;;;;;14.40;8.87;;;;;;;4.99;100.00;93163.94;5050801;28;20243;-56
2023/01/17 01:40:18;;;;;;;12.27;8.07;;;;;;;5.02;100.00;93188.88;5050771;28;20272;-54
2023/01/17 01:42:58;;;;;;;13.17;8.30;;;;;;;4.99;100.00;93150.56;5050540;28;20805;-54
2023/01/17 01:45:27;;;;;;;15.47;9.07;;;;;;;4.66;100.00;93129.13;5050764;28;20192;-56
2023/01/17 01:48:01;;;;;;;16.30;8.47;;;;;;;4.87;100.00;93134.81;5050446;28;20745;-54
2023/01/17 01:50:28;;;;;;;12.70;7.73;;;;;;;4.96;100.00;93156.69;5050093;28;20192;-53
2023/01/17 01:52:59;;;;;;;16.27;8.13;;;;;;;4.78;100.00;93135.63;5050808;28;20626;-56
2023/01/17 01:55:29;;;;;;;14.33;8.30;;;;;;;4.81;100.00;93127.78;5066132;28;20247;-56
2023/01/17 01:58:01;;;;;;;14.17;8.27;;;;;;;4.72;100.00;93121.06;5050779;28;20249;-54
2023/01/17 02:00:34;;;;;;;12.23;7.43;;;;;;;4.79;100.00;93112.03;5050753;28;20250;-54
2023/01/17 02:03:06;;;;;;;12.20;8.13;;;;;;;4.95;100.00;93147.53;5050764;28;20224;-57
2023/01/17 02:05:34;;;;;;;15.97;7.83;;;;;;;4.89;100.00;93110.28;5050766;28;20195;-56
2023/01/17 02:08:04;;;;;;;13.53;8.40;;;;;;;5.11;100.00;93141.94;5049108;28;20244;-55
2023/01/17 02:10:33;;;;;;;12.83;7.43;;;;;;;5.21;100.00;93160.38;5050602;28;20608;-56
2023/01/17 02:12:59;;;;;;;15.07;9.70;;;;;;;5.14;100.00;93146.72;5050666;28;20320;-53
2023/01/17 02:15:44;;;;;;;13.83;8.17;;;;;;;5.06;100.00;93164.22;5050470;28;20690;-53
2023/01/17 02:18:26;;;;;;;13.80;7.53;;;;;;;4.62;100.00;93115.22;5065863;28;20230;-55
2023/01/17 02:21:22;;;;;;;13.90;8.37;;;;;;;4.82;100.00;93126.88;5053309;28;20276;-56
2023/01/17 02:24:24;;;;;;;11.03;7.43;;;;;;;4.62;100.00;93069.13;5053366;28;20235;-55
2023/01/17 02:27:02;;;;;;;14.07;8.53;;;;;;;4.93;100.00;93110.81;5053693;28;20195;-55
2023/01/17 02:32:46;;;;;;;13.57;7.73;;;;;;;4.87;100.00;93117.19;5053565;28;20226;-56
2023/01/17 02:35:19;;;;;;;13.30;7.63;;;;;;;4.83;100.00;93115.88;5052124;28;20688;-54
2023/01/17 02:37:49;;;;;;;12.67;8.03;;;;;;;4.86;100.00;93117.31;5052274;28;20228;-54
2023/01/17 02:40:30;;;;;;;18.63;11.30;;;;;;;4.45;100.00;93090.72;5053543;28;20279;-54
2023/01/17 02:43:04;;;;;;;21.10;13.13;;;;;;;4.44;100.00;93110.97;5053645;28;20688;-53
2023/01/17 02:45:30;;;;;;;17.60;10.60;;;;;;;4.57;100.00;93129.91;5053454;28;20220;-57
2023/01/17 02:47:55;;;;;;;19.70;10.60;;;;;;;4.79;100.00;93147.25;5053663;28;20299;-57
2023/01/17 02:50:25;;;;;;;16.40;10.43;;;;;;;4.89;100.00;93095.19;5053537;28;20650;-55
2023/01/17 02:53:24;;;;;;;15.57;9.80;;;;;;;4.89;100.00;93115.31;5053253;28;20211;-53
2023/01/17 02:55:58;;;;;;;15.10;8.60;;;;;;;4.91;100.00;93088.31;5053273;28;20674;-54
2023/01/17 02:58:26;;;;;;;14.70;9.33;;;;;;;4.96;100.00;93106.31;5051786;28;20300;-53
2023/01/17 03:01:29;;;;;;;14.47;8.97;;;;;;;5.07;100.00;93086.03;5053131;28;20245;-54
2023/01/17 03:04:29;;;;;;;13.43;8.37;;;;;;;5.17;100.00;93097.81;5031670;28;20239;-54
2023/01/17 03:07:02;;;;;;;14.13;8.63;;;;;;;5.02;100.00;93064.69;5052833;28;20193;-57
2023/01/17 03:09:30;;;;;;;15.33;9.10;;;;;;;5.23;100.00;93110.66;5053035;28;20207;-56
2023/01/17 03:11:57;;;;;;;13.43;8.87;;;;;;;5.10;100.00;93082.44;5052915;28;20282;-52
2023/01/17 03:14:22;;;;;;;13.47;8.33;;;;;;;5.13;100.00;93093.97;5052769;28;20285;-55
2023/01/17 03:16:48;;;;;;;14.57;8.37;;;;;;;4.98;100.00;93054.13;5052947;28;20220;-54
2023/01/17 03:19:14;;;;;;;17.23;9.10;;;;;;;5.13;100.00;93081.38;5068131;28;20274;-58
2023/01/17 03:21:40;;;;;;;14.27;8.90;;;;;;;5.04;100.00;93075.44;5051877;28;20197;-53
2023/01/17 03:24:06;;;;;;;16.67;8.70;;;;;;;4.86;100.00;93082.88;5052999;28;20682;-54
2023/01/17 03:26:31;;;;;;;15.17;9.07;;;;;;;4.94;100.00;93065.38;5052940;28;20254;-55
2023/01/17 03:28:57;;;;;;;15.23;9.13;;;;;;;4.86;100.00;93062.75;5052899;28;20216;-54
2023/01/17 03:31:22;;;;;;;12.80;8.60;;;;;;;4.95;100.00;93084.59;5050752;28;20188;-57
2023/01/17 03:33:48;;;;;;;13.67;8.50;;;;;;;4.65;100.00;93072.16;5052844;28;20224;-57
2023/01/17 03:36:13;;;;;;;14.37;8.47;;;;;;;4.71;100.00;93058.25;5052784;28;20188;-56
2023/01/17 03:38:39;;;;;;;15.57;8.73;;;;;;;4.83;100.00;93089.88;5052580;28;20220;-57
2023/01/17 03:41:05;;;;;;;13.73;8.20;;;;;;;4.98;100.00;93081.81;5052642;28;20690;-53
2023/01/17 03:43:31;;;;;;;14.53;8.87;;;;;;;4.81;100.00;93066.59;5052741;28;20221;-54
2023/01/17 03:46:04;;;;;;;14.83;8.43;;;;;;;4.99;100.00;93106.03;5052599;28;20201;-54
2023/01/17 03:48:30;;;;;;;15.77;9.00;;;;;;;4.77;100.00;93076.13;5052774;28;20209;-55
2023/01/17 03:50:56;;;;;;;12.33;8.43;;;;;;;5.01;100.00;93098.34;5052248;28;20188;-55
2023/01/17 03:53:21;;;;;;;13.47;7.77;;;;;;;5.00;100.00;93094.25;5053075;28;20678;-56
2023/01/17 03:55:47;;;;;;;12.97;8.23;;;;;;;4.97;100.00;93109.63;5052986;28;20185;-53
2023/01/17 03:58:12;;;;;;;11.23;7.93;;;;;;;4.95;100.00;93094.66;5052508;28;20295;-55
2023/01/17 04:00:38;;;;;;;13.57;8.83;;;;;;;4.85;100.00;93093.06;5052254;28;20188;-58
2023/01/17 04:03:03;;;;;;;14.10;8.60;;;;;;;4.64;100.00;93100.78;5052113;28;20221;-57
2023/01/17 04:05:29;;;;;;;13.10;8.13;;;;;;;4.94;100.00;93075.47;5052306;28;20193;-52
2023/01/17 04:07:54;;;;;;;13.87;8.77;;;;;;;5.02;100.00;93115.84;5052344;28;20220;-53
2023/01/17 04:10:20;;;;;;;15.13;9.33;;;;;;;4.89;100.00;93080.09;5052005;28;20217;-55
2023/01/17 04:12:45;;;;;;;14.73;8.50;;;;;;;4.96;100.00;93111.34;5052691;22;20221;-54
2023/01/17 04:15:11;;;;;;;15.87;9.03;;;;;;;4.89;100.00;93100.22;5032474;28;20220;-55
2023/01/17 04:17:37;;;;;;;14.33;8.90;;;;;;;4.65;100.00;93104.88;5032319;28;20240;-56
2023/01/17 04:20:03;;;;;;;14.97;8.87;;;;;;;4.30;100.00;93092.06;5030642;28;20215;-57
2023/01/17 04:22:30;;;;;;;14.87;9.57;;;;;;;4.57;100.00;93117.34;5031968;28;20642;-56
2023/01/17 04:24:56;;;;;;;17.80;8.73;;;;;;;4.65;100.00;93140.09;5031842;28;20682;-57
2023/01/17 04:27:22;;;;;;;14.67;9.53;;;;;;;4.93;100.00;93154.41;5031847;28;20267;-54
2023/01/17 04:29:47;;;;;;;13.00;8.87;;;;;;;4.69;100.00;93133.09;5031871;28;20280;-54
2023/01/17 04:32:13;;;;;;;15.23;9.13;;;;;;;4.85;100.00;93090.56;5031925;28;20738;-57
2023/01/17 04:34:39;;;;;;;15.97;9.53;;;;;;;4.79;100.00;93086.84;5031591;28;20209;-54
2023/01/17 04:37:04;;;;;;;15.40;8.43;;;;;;;4.82;100.00;93121.84;5031634;28;20595;-54
2023/01/17 04:39:30;;;;;;;12.87;7.53;;;;;;;4.94;100.00;93143.44;5031931;28;20193;-57
2023/01/17 04:41:55;;;;;;;12.53;7.77;;;;;;;5.10;100.00;93133.59;5031258;28;20271;-58
2023/01/17 04:44:21;;;;;;;12.23;7.93;;;;;;;5.18;100.00;93144.72;5031792;28;20297;-59
2023/01/17 04:46:46;;;;;;;14.07;9.07;;;;;;;5.24;100.00;93157.56;5030383;28;20201;-56
2023/01/17 04:49:12;;;;;;;14.10;8.80;;;;;;;5.31;100.00;93165.38;5047024;28;20618;-53
2023/01/17 04:51:37;;;;;;;13.83;8.53;;;;;;;5.25;100.00;93130.66;5031541;28;20181;-54
2023/01/17 04:54:03;;;;;;;12.83;7.87;;;;;;;5.10;100.00;93108.41;5031410;28;20579;-55
2023/01/17 04:56:28;;;;;;;12.30;8.00;;;;;;;5.39;100.00;93150.38;5031275;28;20190;-54
2023/01/17 04:58:56;;;;;;;16.57;9.97;;;;;;;5.42;100.00;93163.50;5030108;28;20218;-54
2023/01/17 05:01:22;;;;;;;16.60;9.37;;;;;;;6.46;100.00;93155.66;5031229;28;20189;-54
2023/01/17 05:03:47;;;;;;;13.97;8.07;;;;;;;6.97;100.00;93158.34;5031541;28;20220;-55
2023/01/17 05:06:13;;;;;;;12.63;7.93;;;;;;;7.14;100.00;93207.28;5031246;28;20344;-55
2023/01/17 05:08:38;;;;;;;12.43;8.10;;;;;;;6.87;100.00;93238.44;5046393;28;20594;-55
2023/01/17 05:11:04;;;;;;;11.10;7.27;;;;;;;6.49;100.00;93248.75;5031585;28;20200;-56
2023/01/17 05:13:29;;;;;;;13.90;7.97;;;;;;;6.31;100.00;93193.19;5030878;28;20220;-57
2023/01/17 05:15:56;;;;;;;10.33;6.60;;;;;;;6.31;100.00;93217.63;5031236;28;20201;-55
2023/01/17 05:18:22;;;;;;;9.33;6.83;;;;;;;6.18;100.00;93222.22;5031104;28;20768;-55
2023/01/17 05:20:47;;;;;;;12.47;7.63;;;;;;;6.04;100.00;93152.06;5031119;28;20193;-55
2023/01/17 05:23:13;;;;;;;11.23;6.10;;;;;;;5.71;100.00;93197.00;5030882;28;20232;-56
2023/01/17 05:25:43;;;;;;;12.70;7.13;;;;;;;5.64;100.00;93195.94;5030884;28;20185;-56
2023/01/17 05:28:11;;;;;;;10.97;7.27;;;;;;;5.83;100.00;93195.94;5031482;28;20220;-53
2023/01/17 05:30:37;;;;;;;12.83;7.83;;;;;;;5.87;100.00;93209.84;5029816;28;20270;-56
2023/01/17 05:33:02;;;;;;;14.37;9.43;;;;;;;5.85;100.00;93183.97;5031125;28;20216;-54
2023/01/17 05:35:31;;;;;;;23.70;15.70;;;;;;;5.85;100.00;93146.16;5031002;28;20596;-57
2023/01/17 05:37:58;;;;;;;8.70;6.40;;;;;;;5.85;100.00;93178.13;5046183;28;20220;-53
2023/01/17 05:40:26;;;;;;;12.77;6.33;;;;;;;5.63;100.00;93155.75;5030839;28;20655;-53
2023/01/17 05:42:53;;;;;;;26.07;16.27;;;;;;;5.82;100.00;93169.06;5030835;28;20216;-52
2023/01/17 05:45:21;;;;;;;11.53;6.77;;;;;;;6.00;100.00;93150.75;5030782;28;20229;-55
2023/01/17 05:47:48;;;;;;;10.47;6.57;;;;;;;6.00;100.00;93154.03;5030829;28;20718;-55
2023/01/17 05:50:17;;;;;;;9.67;6.50;;;;;;;6.19;100.00;93201.88;5029671;28;20240;-54
2023/01/17 05:52:52;;;;;;;10.37;6.80;;;;;;;6.12;100.00;93160.47;5030934;28;20279;-55
2023/01/17 05:55:17;;;;;;;13.77;6.10;;;;;;;6.19;100.00;93193.50;5032876;28;20231;-56
2023/01/17 05:57:43;;;;;;;13.00;7.73;;;;;;;6.06;100.00;93095.47;5034421;28;20710;-53
2023/01/17 06:00:09;;;;;;;10.10;6.50;;;;;;;6.11;100.00;93126.13;5034325;28;20193;-55
2023/01/17 06:02:34;;;;;;;9.40;6.20;;;;;;;6.19;100.00;93100.19;5034352;28;20245;-57
2023/01/17 06:05:00;;;;;;;13.13;6.60;;;;;;;6.53;100.00;93165.03;5034091;28;20240;-56
2023/01/17 06:07:25;;;;;;;8.83;6.57;;;;;;;6.53;100.00;93154.16;5034052;28;20228;-54
2023/01/17 06:09:51;;;;;;;8.73;6.03;;;;;;;6.58;100.00;93152.81;5033533;28;20569;-54
2023/01/17 06:12:16;;;;;;;7.63;4.73;;;;;;;6.73;100.00;93146.31;5034050;28;20205;-56
2023/01/17 06:14:42;;;;;;;9.97;5.67;;;;;;;6.78;100.00;93193.84;5033745;28;20186;-57
2023/01/17 06:17:08;;;;;;;10.43;5.97;;;;;;;6.81;100.00;93180.94;5032586;28;20193;-57
2023/01/17 06:19:33;;;;;;;9.67;7.30;;;;;;;6.52;100.00;93195.47;5033799;28;20208;-56
2023/01/17 06:21:59;;;;;;;11.33;7.30;;;;;;;6.65;100.00;93175.72;5033580;28;20217;-56
2023/01/17 06:24:24;;;;;;;7.17;4.87;;;;;;;6.69;100.00;93177.81;5033669;28;20206;-57
2023/01/17 06:26:50;;;;;;;8.93;5.83;;;;;;;6.63;100.00;93122.06;5033785;28;20216;-55
2023/01/17 06:29:15;;;;;;;7.93;4.90;;;;;;;6.63;100.00;93132.97;5033687;28;20629;-57
2023/01/17 06:31:40;;;;;;;7.57;5.00;;;;;;;6.67;100.00;93139.31;5033833;28;20233;-57
2023/01/17 06:34:06;;;;;;;9.80;5.00;;;;;;;6.91;100.00;93196.03;5033450;28;20217;-54
2023/01/17 06:36:32;;;;;;;5.90;4.50;;;;;;;7.03;100.00;93250.44;5033631;28;20626;-58
2023/01/17 06:38:58;;;;;;;6.73;4.57;;;;;;;7.05;100.00;93251.09;5031993;28;20580;-55
2023/01/17 06:41:24;;;;;;;7.20;4.83;;;;;;;7.14;100.00;93237.59;5033412;28;20277;-55
2023/01/17 06:43:52;;;;;;;7.17;4.60;;;;;;;7.14;100.00;93227.50;5031675;28;20225;-55
2023/01/17 06:46:18;;;;;;;5.90;4.00;;;;;;;7.30;100.00;93253.69;5032568;28;20549;-54
2023/01/17 06:48:43;;;;;;;7.30;4.27;;;;;;;7.39;100.00;93267.22;5030732;28;20225;-56
2023/01/17 06:51:09;;;;;;;5.60;3.30;;;;;;;7.45;100.00;93287.63;5032280;28;20198;-55
2023/01/17 06:53:35;;;;;;;7.20;4.03;;;;;;;7.62;100.00;93278.44;5033001;28;20695;-55
2023/01/17 06:56:01;;;;;;;7.07;4.33;;;;;;;7.59;100.00;93271.16;5032946;28;20178;-57
2023/01/17 06:58:26;;;;;;;6.43;4.07;;;;;;;7.62;100.00;93263.28;5031827;28;20210;-52
2023/01/17 07:00:52;;;;;;;6.53;4.03;;;;;;;7.73;100.00;93283.28;5032567;28;20186;-56
2023/01/17 07:03:23;;;;;;;5.40;3.43;;;;;;;7.87;100.00;93300.47;5048290;28;20676;-54
2023/01/17 07:05:49;;;;;;;4.57;3.50;;;;;;;7.92;100.00;93280.56;5032973;28;20198;-55
2023/01/17 07:08:17;;;;;;;5.13;3.20;;;;;;;8.08;100.00;93338.09;5031697;28;20216;-54
2023/01/17 07:10:46;;;;;;;5.73;3.00;;;;;;;8.15;100.00;93331.50;5031615;28;20186;-55
2023/01/17 07:13:12;;;;;;;9.33;3.20;;;;;;;8.22;100.00;93325.69;5031791;28;20297;-56
2023/01/17 07:15:39;;;;;;;4.50;3.43;;;;;;;8.24;100.00;93323.78;5031641;28;20182;-55
2023/01/17 07:18:06;;;;;;;6.03;3.60;;;;;;;8.22;100.00;93318.09;5031436;28;20694;-56
2023/01/17 07:20:31;;;;;;;4.90;3.10;;;;;;;8.37;100.00;93293.84;5032164;28;20269;-54
2023/01/17 07:22:58;;;;;;;7.30;4.10;;;;;;;8.53;100.00;93320.19;5032192;28;20760;-53
2023/01/17 07:25:24;;;;;;;7.57;4.93;;;;;;;8.54;100.00;93347.13;5029532;28;20686;-56
2023/01/17 07:27:56;;;;;;;5.30;2.97;;;;;;;8.69;100.00;93371.75;5032315;28;20774;-56
2023/01/17 07:30:22;;;;;;;9.33;3.33;;;;;;;8.76;100.00;93371.94;5032859;28;20183;-57
2023/01/17 07:32:52;;;;;;;6.50;3.30;;;;;;;8.60;100.00;93356.66;5032892;28;20210;-57
2023/01/17 07:35:17;;;;;;;5.13;3.00;;;;;;;8.63;100.00;93362.19;5032718;28;20194;-58
2023/01/17 07:37:50;;;;;;;6.83;3.07;;;;;;;8.74;100.00;93366.22;5032560;28;20264;-54
2023/01/17 07:40:16;;;;;;;4.10;2.40;;;;;;;8.97;100.00;93385.00;5032697;28;20193;-56
2023/01/17 07:42:43;;;;;;;4.47;2.87;;;;;;;9.17;100.00;93424.41;5032272;28;20218;-56
2023/01/17 07:45:09;;;;;;;7.20;3.13;;;;;;;9.17;100.00;93351.69;5032574;28;20209;-56
2023/01/17 07:47:35;;;;;;;3.60;2.10;;;;;;;9.20;100.00;93386.06;5032664;28;20202;-57
2023/01/17 07:50:01;;;;;;;6.93;2.97;;;;;;;9.27;100.00;93392.13;5047696;28;20182;-53
2023/01/17 07:52:27;;;;;;;4.17;2.90;;;;;;;9.38;100.00;93411.31;5032633;28;20676;-54
2023/01/17 07:54:52;;;;;;;4.67;3.00;;;;;;;9.46;100.00;93440.06;5032416;28;20542;-54
2023/01/17 07:57:18;;;;;;;3.53;2.60;;;;;;;9.47;100.00;93431.50;5032228;28;20186;-54
2023/01/17 07:59:43;;;;;;;7.07;2.90;;;;;;;9.50;100.00;93364.44;5032449;28;20692;-55
2023/01/17 08:02:29;;;;;;;6.03;2.60;;;;;;;9.59;100.00;93376.22;5032070;28;20179;-54
2023/01/17 08:04:54;;;;;;;8.10;3.10;;;;;;;9.61;100.00;93366.69;5031981;28;20190;-54
2023/01/17 08:07:20;;;;;;;6.03;3.00;;;;;;;9.66;100.00;93385.56;5032230;28;20236;-53
2023/01/17 08:09:48;;;;;;;5.90;3.50;;;;;;;9.66;100.00;93361.94;5032211;28;20205;-55
2023/01/17 08:12:14;;;;;;;5.23;2.90;;;;;;;9.79;100.00;93418.91;5032242;28;20182;-54
2023/01/17 08:14:39;;;;;;;3.93;2.63;;;;;;;9.76;100.00;93409.06;5032364;28;20178;-56
2023/01/17 08:17:12;;;;;;;9.70;3.43;;;;;;;9.71;100.00;93370.69;5031178;28;20258;-56
2023/01/17 08:19:37;;;;;;;7.57;3.37;;;;;;;9.84;100.00;93409.09;5031954;28;20193;-55
2023/01/17 08:22:03;;;;;;;5.17;3.20;;;;;;;9.98;100.00;93464.31;5031846;28;20253;-56
2023/01/17 08:24:29;;;;;;;7.00;3.10;;;;;;;10.02;100.00;93436.88;5031907;28;20193;-53
2023/01/17 08:26:55;;;;;;;8.97;3.27;;;;;;;10.03;100.00;93368.19;5031914;28;20570;-56
2023/01/17 08:29:21;;;;;;;7.23;3.63;;;;;;;10.04;100.00;93415.47;5032149;28;20206;-54
2023/01/17 08:31:47;;;;;;;7.03;3.47;;;;;;;10.10;100.00;93472.44;5032060;28;20422;-54
2023/01/17 08:34:15;;;;;;;8.47;4.83;;;;;;;10.05;100.00;93423.88;5031676;28;20220;-54
2023/01/17 08:36:41;;;;;;;18.07;8.23;;;;;;;10.08;100.00;93441.31;5047276;28;20179;-55
2023/01/17 08:39:07;;;;;;;11.47;5.33;;;;;;;10.25;100.00;93486.13;5031723;28;20218;-56
2023/01/17 08:41:33;;;;;;;6.87;3.67;;;;;;;10.33;100.00;93498.06;5031694;28;20186;-55
2023/01/17 08:44:05;;;;;;;8.87;4.47;;;;;;;10.16;100.00;93486.28;5031717;28;20280;-53
2023/01/17 08:46:31;;;;;;;8.47;3.93;;;;;;;10.19;100.00;93491.03;5031805;28;20186;-53
2023/01/17 08:48:58;;;;;;;12.27;5.17;;;;;;;10.16;100.00;93473.59;5032078;28;20263;-55
2023/01/17 08:51:25;;;;;;;12.83;4.00;;;;;;;10.34;100.00;93490.28;5031581;28;20285;-53
2023/01/17 08:53:52;;;;;;;6.97;2.50;;;;;;;10.49;100.00;93516.66;5031397;28;20217;-55
2023/01/17 08:56:18;;;;;;;5.07;2.30;;;;;;;10.65;100.00;93513.31;5030034;28;20194;-54
2023/01/17 08:58:43;;;;;;;5.23;2.43;;;;;;;10.65;100.00;93500.63;5031921;28;20260;-55
2023/01/17 09:01:09;;;;;;;5.93;1.90;;;;;;;10.70;100.00;93511.13;5031363;28;20186;-55
2023/01/17 09:03:35;;;;;;;1.60;1.50;;;;;;;10.60;100.00;93498.56;5031327;28;20842;-54
2023/01/17 09:06:09;;;;;;;2.63;1.30;;;;;;;11.03;100.00;93560.22;5031597;28;20360;-58
2023/01/17 09:08:34;;;;;;;3.77;1.20;;;;;;;11.09;100.00;93541.78;5046712;28;20654;-54
2023/01/17 09:11:05;;;;;;;3.23;1.57;;;;;;;11.02;100.00;93531.44;5031398;28;20214;-55
2023/01/17 09:13:30;;;;;;;1.43;1.30;;;;;;;11.01;100.00;93519.66;5031576;28;20213;-56
2023/01/17 09:15:57;;;;;;;3.17;1.37;;;;;;;11.10;100.00;93543.34;5031170;28;20194;-59
2023/01/17 09:18:26;;;;;;;3.37;1.20;;;;;;;11.23;100.00;93569.09;5031782;28;20297;-56
2023/01/17 09:20:56;;;;;;;1.43;1.20;;;;;;;11.32;100.00;93591.03;5031125;28;20217;-56
2023/01/17 09:23:22;;;;;;;11.67;3.07;;;;;;;11.35;100.00;93599.13;5031024;28;20230;-58
2023/01/17 09:25:56;;;;;;;4.17;2.43;;;;;;;11.41;100.00;93583.22;5031248;28;20212;-54
2023/01/17 09:28:22;;;;;;;4.17;2.50;;;;;;;11.40;100.00;93573.19;5030855;28;20210;-54
2023/01/17 09:30:48;;;;;;;3.83;2.30;;;;;;;11.20;100.00;93501.53;5031347;28;20186;-55
2023/01/17 09:33:14;;;;;;;4.63;2.20;;;;;;;11.25;100.00;93501.06;5031148;28;20224;-56
2023/01/17 09:35:40;;;;;;;6.93;2.17;;;;;;;11.17;100.00;93498.53;5031031;28;20284;-54
2023/01/17 09:38:06;;;;;;;4.27;2.80;;;;;;;11.31;100.00;93505.50;5030874;28;20241;-55
2023/01/17 09:40:31;;;;;;;7.60;4.10;;;;;;;11.26;100.00;93526.31;5030998;28;20718;-55
2023/01/17 09:43:02;;;;;;;7.63;2.80;;;;;;;11.51;100.00;93522.75;5031053;28;20267;-56
2023/01/17 09:45:32;;;;;;;10.03;3.43;;;;;;;11.41;100.00;93493.38;5030921;28;20158;-58
2023/01/17 09:48:00;;;;;;;11.77;3.27;;;;;;;11.23;100.00;93452.09;5031131;28;20214;-58
2023/01/17 09:50:41;;;;;;;7.73;2.90;;;;;;;11.43;100.00;93422.78;5029658;28;20186;-57
2023/01/17 09:53:14;;;;;;;2.87;1.87;;;;;;;11.28;100.00;93478.63;5030662;28;20214;-55
2023/01/17 09:55:57;;;;;;;7.47;2.00;;;;;;;11.25;100.00;93488.34;5030779;28;20198;-57
2023/01/17 09:58:50;;;;;;;5.40;2.33;;;;;;;11.30;100.00;93506.44;5030867;28;20302;-58
2023/01/17 10:01:54;;;;;;;4.67;2.70;;;;;;;11.27;100.00;93555.88;5030850;28;20170;-57
2023/01/17 10:04:40;;;;;;;2.97;1.83;;;;;;;11.40;100.00;93575.75;5019684;28;20279;-57
2023/01/17 10:07:33;;;;;;;10.80;2.33;;;;;;;11.47;100.00;93581.81;5030887;28;20188;-58
2023/01/17 10:10:26;;;;;;;3.80;1.97;;;;;;;11.47;100.00;93508.00;5030492;28;20730;-57
2023/01/17 10:13:08;;;;;;;2.33;1.63;;;;;;;11.47;100.00;93536.75;5030695;28;20222;-56
2023/01/17 10:15:52;;;;;;;5.53;2.23;;;;;;;11.63;100.00;93546.13;5030753;28;20183;-56
2023/01/17 10:18:34;;;;;;;7.70;2.90;;;;;;;11.61;100.00;93510.66;5030890;28;20253;-57
2023/01/17 10:21:06;;;;;;;5.03;2.43;;;;;;;11.55;100.00;93543.59;5030928;28;20186;-58
2023/01/17 10:23:58;;;;;;;9.97;3.30;;;;;;;11.51;100.00;93514.34;5031189;28;20226;-56
2023/01/17 10:26:24;;;;;;;13.30;4.70;;;;;;;11.50;100.00;93517.84;5030651;28;20194;-59
2023/01/17 10:28:53;;;;;;;14.93;3.87;;;;;;;11.50;100.00;93512.75;5030377;28;20780;-55
2023/01/17 10:31:18;;;;;;;9.70;3.43;;;;;;;11.48;100.00;93464.56;5030353;28;20185;-56
2023/01/17 10:33:56;;;;;;;8.73;3.70;;;;;;;11.48;100.00;93533.28;5028960;28;20206;-58
2023/01/17 10:36:38;;;;;;;2.23;1.33;;;;;;;11.47;100.00;93554.56;5030388;28;20198;-55
2023/01/17 10:39:14;;;;;;;1.30;1.20;;;;;;;11.42;100.00;93549.19;5030213;28;20294;-56
2023/01/17 10:41:44;;;;;;;4.73;1.90;;;;;;;11.42;100.00;93549.19;5032724;28;20695;-57
2023/01/17 10:44:34;;;;;;;4.67;2.10;;;;;;;11.60;100.00;93589.72;5033690;28;20234;-57
2023/01/17 10:47:08;;;;;;;4.70;2.50;;;;;;;11.70;100.00;93565.72;5033284;28;20190;-58
2023/01/17 10:49:38;;;;;;;4.60;2.63;;;;;;;11.78;100.00;93432.50;5033514;28;20220;-58
2023/01/17 10:52:11;;;;;;;4.23;2.50;;;;;;;11.70;100.00;93516.53;5033508;28;20260;-57
2023/01/17 10:55:02;;;;;;;4.40;1.80;;;;;;;11.69;100.00;93546.31;5033493;28;20663;-57
2023/01/17 10:57:36;;;;;;;3.33;1.23;;;;;;;11.71;100.00;93561.41;5033698;28;20278;-55
2023/01/17 11:00:24;;;;;;;4.60;1.60;;;;;;;11.62;100.00;93524.97;5032891;28;20190;-57
2023/01/17 11:02:50;;;;;;;2.07;1.33;;;;;;;11.82;100.00;93495.66;5033129;28;20252;-57
2023/01/17 11:05:30;;;;;;;5.90;1.57;;;;;;;11.87;100.00;93528.25;5033106;28;20210;-56
2023/01/17 11:07:58;;;;;;;3.50;1.53;;;;;;;11.94;100.00;93541.13;5033172;28;20760;-56
2023/01/17 11:10:36;;;;;;;3.03;1.60;;;;;;;11.91;100.00;93513.44;5033115;28;20197;-56
2023/01/17 11:13:19;;;;;;;4.03;1.90;;;;;;;11.97;100.00;93525.50;5033137;28;20218;-56
2023/01/17 11:15:48;;;;;;;5.33;1.77;;;;;;;11.98;100.00;93539.84;5033097;28;20190;-56
2023/01/17 11:18:17;;;;;;;1.80;1.60;;;;;;;12.03;100.00;93560.50;5033033;28;20285;-55
2023/01/17 11:20:43;;;;;;;3.87;1.43;;;;;;;12.14;99.93;93583.09;5032805;28;20178;-59
2023/01/17 11:23:30;;;;;;;2.43;1.17;;;;;;;12.18;99.04;93586.88;5032697;28;20217;-56
2023/01/17 11:26:06;;;;;;;7.10;1.33;;;;;;;12.38;98.72;93567.69;5032763;28;20327;-56
2023/01/17 11:28:37;;;;;;;2.10;1.00;;;;;;;12.45;98.06;93571.13;5033172;28;20214;-56
2023/01/17 11:31:14;;;;;;;3.50;0.73;;;;;;;12.74;80.57;93680.13;5032704;28;20653;-59
2023/01/17 11:33:46;;;;;;;0.80;0.73;;;;;;;12.75;77.50;93621.31;5032603;28;20221;-55
2023/01/17 11:36:14;;;;;;;3.30;1.10;;;;;;;12.72;77.89;93595.38;5032992;28;20209;-55
2023/01/17 11:38:53;;;;;;;3.03;0.90;;;;;;;12.70;74.49;93615.13;5032884;28;20221;-54
2023/01/17 11:41:19;;;;;;;1.23;0.80;;;;;;;12.72;75.39;93592.81;5032706;28;20276;-57
2023/01/17 11:43:50;;;;;;;1.73;1.10;;;;;;;12.78;75.54;93582.75;5047695;28;20356;-56
2023/01/17 11:46:19;;;;;;;2.20;1.13;;;;;;;12.74;75.69;93557.75;5032583;28;20205;-56
2023/01/17 11:49:00;;;;;;;1.03;0.70;;;;;;;12.70;74.56;93552.19;5047970;28;20209;-53
2023/01/17 11:51:30;;;;;;;0.97;0.63;;;;;;;12.99;69.88;93663.75;5031765;28;20194;-53
2023/01/17 11:54:37;;;;;;;3.33;1.03;;;;;;;13.00;72.25;93611.75;5032287;28;20229;-53
2023/01/17 11:57:05;;;;;;;1.33;1.00;;;;;;;12.91;72.80;93567.66;5031597;28;20679;-56
2023/01/17 11:59:33;;;;;;;2.20;1.10;;;;;;;12.90;72.86;93553.31;5032455;28;20691;-54
2023/01/17 12:02:30;;;;;;;1.50;1.00;;;;;;;12.94;73.86;93520.59;5047526;28;20201;-55
2023/01/17 12:05:15;;;;;;;1.63;0.87;;;;;;;12.98;72.87;93548.16;5032371;28;20221;-53
2023/01/17 12:07:40;;;;;;;0.70;0.70;;;;;;;12.97;71.95;93546.56;5032306;28;20320;-57
2023/01/17 12:10:37;;;;;;;0.87;0.80;;;;;;;12.95;72.59;93530.63;5030928;28;20557;-55
2023/01/17 12:16:30;;;;;;;2.33;1.20;;;;;;;13.00;72.14;93547.97;5031674;28;20196;-56
2023/01/17 12:19:17;;;;;;;1.53;1.13;;;;;;;12.87;72.78;93495.00;5032490;28;20652;-54
2023/01/17 12:22:06;;;;;;;1.23;0.63;;;;;;;12.93;72.80;93481.53;5032275;28;20196;-55
2023/01/17 12:24:47;;;;;;;1.47;1.03;;;;;;;13.03;71.40;93514.50;5032140;28;20222;-57
2023/01/17 12:27:21;;;;;;;0.70;0.60;;;;;;;13.04;70.32;93544.94;5031948;28;20204;-57
2023/01/17 12:30:17;;;;;;;3.60;0.90;;;;;;;13.10;69.84;93553.66;5031937;28;20234;-55
2023/01/17 12:32:57;;;;;;;0.77;0.70;;;;;;;13.11;70.01;93510.13;5031868;28;20217;-55
2023/01/17 12:35:52;;;;;;;2.63;0.80;;;;;;;13.26;67.71;93579.06;5032304;28;20186;-55
2023/01/17 12:38:24;;;;;;;1.33;0.60;;;;;;;13.29;68.40;93565.97;5030874;28;20236;-56
2023/01/17 12:41:06;;;;;;;1.77;1.17;;;;;;;13.29;68.51;93559.09;5031681;28;20182;-56
2023/01/17 12:43:38;;;;;;;1.53;0.63;;;;;;;13.27;68.63;93562.78;5031920;28;20214;-55
2023/01/17 12:46:12;;;;;;;1.77;0.93;;;;;;;13.31;69.15;93541.84;5031690;28;20193;-57
2023/01/17 12:48:38;;;;;;;2.77;1.37;;;;;;;13.36;68.48;93543.88;5031834;28;20214;-55
2023/01/17 12:51:14;;;;;;;2.03;0.73;;;;;;;13.37;68.21;93538.59;5031545;28;20225;-55
2023/01/17 12:53:47;;;;;;;0.93;0.83;;;;;;;13.41;68.39;93534.72;5031666;28;20218;-55
2023/01/17 12:56:32;;;;;;;2.43;0.73;;;;;;;13.44;67.63;93562.47;5031699;28;20277;-55
2023/01/17 12:59:16;;;;;;;3.43;1.30;;;;;;;13.36;67.88;93514.03;5030360;28;20222;-53
2023/01/17 13:01:56;;;;;;;1.57;1.10;;;;;;;13.52;66.86;93560.78;5031429;28;20241;-55
2023/01/17 13:04:45;;;;;;;0.83;0.67;;;;;;;13.48;67.85;93548.38;5030963;28;20818;-55
2023/01/17 13:07:29;;;;;;;1.93;1.00;;;;;;;13.50;67.09;93568.63;5031378;28;20194;-60
2023/01/17 13:10:14;;;;;;;1.60;1.03;;;;;;;13.46;66.24;93575.06;5031283;28;20235;-55
2023/01/17 13:12:40;;;;;;;0.93;0.80;;;;;;;13.40;66.27;93562.97;5056530;22;20222;-55